createdAt,value
2023-01-26T00:00:05.427Z,0.000000
2023-01-26T00:01:01.005Z,0.000000
2023-01-26T00:02:01.101Z,0.000000
2023-01-26T00:03:01.081Z,0.000000
2023-01-26T00:04:01.633Z,0.000000
2023-01-26T00:05:05.306Z,0.000000
2023-01-26T00:06:01.131Z,0.000000
2023-01-26T00:07:01.023Z,0.000000
2023-01-26T00:08:01.134Z,0.000000
2023-01-26T00:09:01.065Z,0.000000
2023-01-26T00:10:06.022Z,0.000000
2023-01-26T00:11:01.058Z,0.000000
2023-01-26T00:12:01.160Z,0.000000
2023-01-26T00:13:01.073Z,0.000000
2023-01-26T00:14:01.200Z,0.000000
2023-01-26T00:15:04.586Z,0.000000
2023-01-26T00:16:01.646Z,0.000000
2023-01-26T00:17:01.121Z,0.000000
2023-01-26T00:18:01.745Z,0.000000
2023-01-26T00:19:01.118Z,0.000000
2023-01-26T00:20:06.057Z,0.000000
2023-01-26T00:21:01.155Z,0.000000
2023-01-26T00:22:01.829Z,0.000000
2023-01-26T00:23:01.131Z,0.000000
2023-01-26T00:24:01.732Z,0.000000
2023-01-26T00:25:05.981Z,0.000000
2023-01-26T00:26:01.815Z,0.000000
2023-01-26T00:27:01.635Z,0.000000
2023-01-26T00:28:00.253Z,0.000000
2023-01-26T00:29:00.182Z,0.000000
2023-01-26T00:30:04.774Z,0.000000
2023-01-26T00:31:00.242Z,0.000000
2023-01-26T00:32:00.332Z,0.000000
2023-01-26T00:33:00.222Z,0.000000
2023-01-26T00:34:01.649Z,0.000000
2023-01-26T00:35:03.541Z,0.000000
2023-01-26T00:36:00.378Z,0.000000
2023-01-26T00:37:00.239Z,0.000000
2023-01-26T00:38:00.375Z,0.000000
2023-01-26T00:39:00.261Z,0.000000
2023-01-26T00:40:04.720Z,0.000000
2023-01-26T00:41:00.280Z,0.000000
2023-01-26T00:42:00.361Z,0.000000
2023-01-26T00:43:00.292Z,0.000000
2023-01-26T00:44:00.431Z,0.000000
2023-01-26T00:45:03.659Z,0.000000
2023-01-26T00:46:00.383Z,0.000000
2023-01-26T00:47:00.309Z,0.000000
2023-01-26T00:48:01.761Z,0.000000
2023-01-26T00:49:00.300Z,0.000000
2023-01-26T00:50:05.541Z,0.000000
2023-01-26T00:51:00.334Z,0.000000
2023-01-26T00:52:01.789Z,0.000000
2023-01-26T00:53:00.340Z,0.000000
2023-01-26T00:54:00.469Z,0.000000
2023-01-26T00:55:03.737Z,0.000000
2023-01-26T00:56:01.816Z,0.000000
2023-01-26T00:57:00.381Z,0.000000
2023-01-26T00:58:00.455Z,0.000000
2023-01-26T00:59:00.395Z,0.000000
2023-01-26T01:00:04.900Z,0.000000
2023-01-26T01:01:00.467Z,0.000000
2023-01-26T01:02:00.593Z,0.000000
2023-01-26T01:03:00.444Z,0.000000
2023-01-26T01:04:01.637Z,0.000000
2023-01-26T01:05:04.796Z,0.000000
2023-01-26T01:06:00.543Z,0.000000
2023-01-26T01:07:00.492Z,0.000000
2023-01-26T01:08:00.547Z,0.000000
2023-01-26T01:09:00.471Z,0.000000
2023-01-26T01:10:04.993Z,0.000000
2023-01-26T01:11:00.491Z,0.000000
2023-01-26T01:12:00.566Z,0.000000
2023-01-26T01:13:00.484Z,0.000000
2023-01-26T01:14:00.601Z,0.000000
2023-01-26T01:15:04.784Z,0.000000
2023-01-26T01:16:00.580Z,0.000000
2023-01-26T01:17:00.516Z,0.000000
2023-01-26T01:18:01.781Z,0.000000
2023-01-26T01:19:00.544Z,0.000000
2023-01-26T01:20:05.106Z,0.000000
2023-01-26T01:21:00.560Z,0.000000
2023-01-26T01:22:01.784Z,0.000000
2023-01-26T01:23:00.564Z,0.000000
2023-01-26T01:24:00.709Z,0.000000
2023-01-26T01:25:03.911Z,0.000000
2023-01-26T01:26:01.679Z,0.000000
2023-01-26T01:27:00.592Z,0.000000
2023-01-26T01:28:00.675Z,0.000000
2023-01-26T01:29:00.597Z,0.000000
2023-01-26T01:30:05.051Z,0.000000
2023-01-26T01:31:00.693Z,0.000000
2023-01-26T01:32:00.832Z,0.000000
2023-01-26T01:33:00.670Z,0.000000
2023-01-26T01:34:01.664Z,0.000000
2023-01-26T01:35:04.879Z,0.000000
2023-01-26T01:36:00.762Z,0.000000
2023-01-26T01:37:00.661Z,0.000000
2023-01-26T01:38:00.794Z,0.000000
2023-01-26T01:39:00.689Z,0.000000
2023-01-26T01:40:05.198Z,0.000000
2023-01-26T01:41:00.683Z,0.000000
2023-01-26T01:42:00.834Z,0.000000
2023-01-26T01:43:00.707Z,0.000000
2023-01-26T01:44:00.821Z,0.000000
2023-01-26T01:45:05.988Z,0.000000
2023-01-26T01:46:00.811Z,0.000000
2023-01-26T01:47:00.771Z,0.000000
2023-01-26T01:48:01.595Z,0.000000
2023-01-26T01:49:00.777Z,0.000000
2023-01-26T01:50:04.364Z,0.000000
2023-01-26T01:51:00.800Z,0.000000
2023-01-26T01:52:01.597Z,0.000000
2023-01-26T01:53:00.806Z,0.000000
2023-01-26T01:54:00.869Z,0.000000
2023-01-26T01:55:05.058Z,0.000000
2023-01-26T01:56:01.872Z,0.000000
2023-01-26T01:57:00.827Z,0.000000
2023-01-26T01:58:00.923Z,0.000000
2023-01-26T01:59:00.819Z,0.000000
2023-01-26T02:00:05.448Z,0.000000
2023-01-26T02:01:00.909Z,0.000000
2023-01-26T02:02:01.072Z,0.000000
2023-01-26T02:03:00.875Z,0.000000
2023-01-26T02:04:01.706Z,0.000000
2023-01-26T02:05:05.155Z,0.000000
2023-01-26T02:06:00.973Z,0.000000
2023-01-26T02:07:00.899Z,0.000000
2023-01-26T02:08:00.990Z,0.000000
2023-01-26T02:09:00.933Z,0.000000
2023-01-26T02:10:05.408Z,0.000000
2023-01-26T02:11:00.914Z,0.000000
2023-01-26T02:12:00.999Z,0.000000
2023-01-26T02:13:00.962Z,0.000000
2023-01-26T02:14:01.040Z,0.000000
2023-01-26T02:15:05.201Z,0.000000
2023-01-26T02:16:01.068Z,0.000000
2023-01-26T02:17:00.961Z,0.000000
2023-01-26T02:18:01.612Z,0.000000
2023-01-26T02:19:00.960Z,0.000000
2023-01-26T02:20:05.908Z,0.000000
2023-01-26T02:21:01.003Z,0.000000
2023-01-26T02:22:01.597Z,0.000000
2023-01-26T02:23:00.996Z,0.000000
2023-01-26T02:24:01.158Z,0.000000
2023-01-26T02:25:04.264Z,0.000000
2023-01-26T02:26:01.654Z,0.000000
2023-01-26T02:27:01.023Z,0.000000
2023-01-26T02:28:01.118Z,0.000000
2023-01-26T02:29:01.041Z,0.000000
2023-01-26T02:30:05.996Z,0.000000
2023-01-26T02:31:01.255Z,0.000000
2023-01-26T02:32:01.195Z,0.000000
2023-01-26T02:33:01.080Z,0.000000
2023-01-26T02:34:01.707Z,0.000000
2023-01-26T02:35:04.547Z,0.000000
2023-01-26T02:36:01.623Z,0.000000
2023-01-26T02:37:01.088Z,0.000000
2023-01-26T02:38:01.646Z,0.000000
2023-01-26T02:39:01.119Z,0.000000
2023-01-26T02:40:06.696Z,0.000000
2023-01-26T02:41:01.118Z,0.000000
2023-01-26T02:42:01.664Z,0.000000
2023-01-26T02:43:01.135Z,0.000000
2023-01-26T02:44:33.279Z,0.000000
2023-01-26T02:45:04.847Z,0.000000
2023-01-26T02:46:01.726Z,0.000000
2023-01-26T02:47:01.639Z,0.000000
2023-01-26T02:48:01.712Z,0.000000
2023-01-26T02:49:01.620Z,0.000000
2023-01-26T02:50:06.074Z,0.000000
2023-01-26T02:51:01.628Z,0.000000
2023-01-26T02:52:01.646Z,0.000000
2023-01-26T02:53:00.222Z,0.000000
2023-01-26T02:54:00.297Z,0.000000
2023-01-26T02:55:03.509Z,0.000000
2023-01-26T02:56:01.674Z,0.000000
2023-01-26T02:57:00.252Z,0.000000
2023-01-26T02:58:00.305Z,0.000000
2023-01-26T02:59:00.269Z,0.000000
2023-01-26T03:00:04.952Z,0.000000
2023-01-26T03:01:00.442Z,0.000000
2023-01-26T03:02:00.436Z,0.000000
2023-01-26T03:03:00.299Z,0.000000
2023-01-26T03:04:01.737Z,0.000000
2023-01-26T03:05:03.754Z,0.000000
2023-01-26T03:06:00.389Z,0.000000
2023-01-26T03:07:00.313Z,0.000000
2023-01-26T03:08:00.437Z,0.000000
2023-01-26T03:09:00.343Z,0.000000
2023-01-26T03:10:04.780Z,0.000000
2023-01-26T03:11:00.316Z,0.000000
2023-01-26T03:12:00.420Z,0.000000
2023-01-26T03:13:00.345Z,0.000000
2023-01-26T03:14:01.760Z,0.000000
2023-01-26T03:15:04.624Z,0.000000
2023-01-26T03:16:00.685Z,0.000000
2023-01-26T03:17:00.387Z,0.000000
2023-01-26T03:18:00.482Z,0.000000
2023-01-26T03:19:00.393Z,0.000000
2023-01-26T03:20:04.987Z,0.000000
2023-01-26T03:21:00.423Z,0.000000
2023-01-26T03:22:00.471Z,0.000000
2023-01-26T03:23:00.415Z,0.000000
2023-01-26T03:24:00.507Z,0.000000
2023-01-26T03:25:03.846Z,0.000000
2023-01-26T03:26:00.534Z,0.000000
2023-01-26T03:27:00.462Z,0.000000
2023-01-26T03:28:00.499Z,0.000000
2023-01-26T03:29:00.428Z,0.000000
2023-01-26T03:30:05.075Z,0.000000
2023-01-26T03:31:00.530Z,0.000000
2023-01-26T03:32:00.568Z,0.000000
2023-01-26T03:33:00.497Z,0.000000
2023-01-26T03:34:00.599Z,0.000000
2023-01-26T03:35:05.398Z,0.000000
2023-01-26T03:36:00.614Z,0.000000
2023-01-26T03:37:00.511Z,0.000000
2023-01-26T03:38:00.616Z,0.000000
2023-01-26T03:39:00.537Z,0.000000
2023-01-26T03:40:04.268Z,0.000000
2023-01-26T03:41:00.527Z,0.000000
2023-01-26T03:42:00.624Z,0.000000
2023-01-26T03:43:00.554Z,0.000000
2023-01-26T03:44:00.682Z,0.000000
2023-01-26T03:45:04.802Z,0.000000
2023-01-26T03:46:00.701Z,0.000000
2023-01-26T03:47:00.619Z,0.000000
2023-01-26T03:48:00.690Z,0.000000
2023-01-26T03:49:00.602Z,0.000000
2023-01-26T03:50:04.149Z,0.000000
2023-01-26T03:51:00.615Z,0.000000
2023-01-26T03:52:00.768Z,0.000000
2023-01-26T03:53:00.610Z,0.000000
2023-01-26T03:54:00.712Z,0.000000
2023-01-26T03:55:04.911Z,0.000000
2023-01-26T03:56:00.696Z,0.000000
2023-01-26T03:57:00.665Z,0.000000
2023-01-26T03:58:00.775Z,0.000000
2023-01-26T03:59:00.666Z,0.000000
2023-01-26T04:00:05.281Z,0.000000
2023-01-26T04:01:00.765Z,0.000000
2023-01-26T04:02:00.856Z,0.000000
2023-01-26T04:03:00.707Z,0.000000
2023-01-26T04:04:00.795Z,0.000000
2023-01-26T04:05:04.907Z,0.000000
2023-01-26T04:06:16.019Z,0.000000
2023-01-26T04:07:00.710Z,0.000000
2023-01-26T04:08:00.786Z,0.000000
2023-01-26T04:09:00.741Z,0.000000
2023-01-26T04:10:04.290Z,0.000000
2023-01-26T04:11:00.799Z,0.000000
2023-01-26T04:12:00.894Z,0.000000
2023-01-26T04:13:00.742Z,0.000000
2023-01-26T04:14:00.829Z,0.000000
2023-01-26T04:15:05.173Z,0.000000
2023-01-26T04:16:00.970Z,0.000000
2023-01-26T04:17:00.776Z,0.000000
2023-01-26T04:18:01.004Z,0.000000
2023-01-26T04:19:00.786Z,0.000000
2023-01-26T04:20:05.279Z,0.000000
2023-01-26T04:21:00.815Z,0.000000
2023-01-26T04:22:00.981Z,0.000000
2023-01-26T04:23:00.821Z,0.000000
2023-01-26T04:24:01.023Z,0.000000
2023-01-26T04:25:05.185Z,0.000000
2023-01-26T04:26:00.890Z,0.000000
2023-01-26T04:27:00.854Z,0.000000
2023-01-26T04:28:01.007Z,0.000000
2023-01-26T04:29:00.867Z,0.000000
2023-01-26T04:30:06.597Z,0.000000
2023-01-26T04:31:00.866Z,0.000000
2023-01-26T04:32:00.928Z,0.000000
2023-01-26T04:33:00.876Z,0.000000
2023-01-26T04:34:01.054Z,0.000000
2023-01-26T04:35:04.258Z,0.000000
2023-01-26T04:36:01.103Z,0.000000
2023-01-26T04:37:00.899Z,0.000000
2023-01-26T04:38:01.012Z,0.000000
2023-01-26T04:39:00.930Z,0.000000
2023-01-26T04:40:05.318Z,0.000000
2023-01-26T04:41:00.917Z,0.000000
2023-01-26T04:42:01.154Z,0.000000
2023-01-26T04:43:00.936Z,0.000000
2023-01-26T04:44:01.007Z,0.000000
2023-01-26T04:45:05.181Z,0.000000
2023-01-26T04:46:01.699Z,0.000000
2023-01-26T04:47:00.946Z,0.000000
2023-01-26T04:48:01.666Z,0.000000
2023-01-26T04:49:00.974Z,0.000000
2023-01-26T04:50:05.440Z,0.000000
2023-01-26T04:51:00.993Z,0.000000
2023-01-26T04:52:01.584Z,0.000000
2023-01-26T04:53:00.996Z,0.000000
2023-01-26T04:54:01.619Z,0.000000
2023-01-26T04:55:04.413Z,0.000000
2023-01-26T04:56:01.103Z,0.000000
2023-01-26T04:57:01.030Z,0.000000
2023-01-26T04:58:02.564Z,0.000000
2023-01-26T04:59:01.026Z,0.000000
2023-01-26T05:00:07.082Z,0.000000
2023-01-26T05:01:01.102Z,0.000000
2023-01-26T05:02:01.636Z,0.000000
2023-01-26T05:03:01.106Z,0.000000
2023-01-26T05:04:01.737Z,0.000000
2023-01-26T05:05:05.502Z,0.000000
2023-01-26T05:06:01.710Z,0.000000
2023-01-26T05:07:01.110Z,0.000000
2023-01-26T05:08:01.636Z,0.000000
2023-01-26T05:09:01.138Z,0.000000
2023-01-26T05:10:05.994Z,0.000000
2023-01-26T05:11:01.173Z,0.000000
2023-01-26T05:12:01.713Z,0.000000
2023-01-26T05:13:01.610Z,0.000000
2023-01-26T05:14:01.587Z,0.000000
2023-01-26T05:15:05.947Z,0.000000
2023-01-26T05:16:01.578Z,0.000000
2023-01-26T05:17:02.003Z,0.000000
2023-01-26T05:18:01.752Z,0.000000
2023-01-26T05:19:00.180Z,0.000000
2023-01-26T05:20:04.711Z,0.000000
2023-01-26T05:21:00.211Z,0.000000
2023-01-26T05:22:01.625Z,0.000000
2023-01-26T05:23:00.212Z,0.000000
2023-01-26T05:24:01.683Z,0.000000
2023-01-26T05:25:05.130Z,0.000000
2023-01-26T05:26:00.801Z,0.000000
2023-01-26T05:27:00.259Z,0.000000
2023-01-26T05:28:00.777Z,0.000000
2023-01-26T05:29:00.291Z,0.000000
2023-01-26T05:30:04.922Z,0.000000
2023-01-26T05:31:00.352Z,0.000000
2023-01-26T05:32:01.760Z,0.000000
2023-01-26T05:33:00.315Z,0.000000
2023-01-26T05:34:00.399Z,0.000000
2023-01-26T05:35:04.596Z,0.000000
2023-01-26T05:36:01.027Z,0.000000
2023-01-26T05:37:00.333Z,0.000000
2023-01-26T05:38:01.725Z,0.000000
2023-01-26T05:39:00.377Z,0.000000
2023-01-26T05:40:03.914Z,0.000000
2023-01-26T05:41:00.388Z,0.000000
2023-01-26T05:42:01.649Z,0.000000
2023-01-26T05:43:00.393Z,0.000000
2023-01-26T05:44:03.599Z,0.000000
2023-01-26T05:45:04.750Z,0.000000
2023-01-26T05:46:01.758Z,0.000000
2023-01-26T05:47:00.408Z,0.000000
2023-01-26T05:48:01.669Z,0.000000
2023-01-26T05:49:00.421Z,0.000000
2023-01-26T05:50:03.950Z,0.000000
2023-01-26T05:51:03.626Z,0.000000
2023-01-26T05:52:01.028Z,0.000000
2023-01-26T05:53:00.486Z,0.000000
2023-01-26T05:54:01.695Z,0.000000
2023-01-26T05:55:04.663Z,0.000000
2023-01-26T05:56:01.743Z,0.000000
2023-01-26T05:57:00.506Z,0.000000
2023-01-26T05:58:01.037Z,0.000000
2023-01-26T05:59:00.509Z,0.000000
2023-01-26T06:00:05.274Z,0.000000
2023-01-26T06:01:00.541Z,0.000000
2023-01-26T06:02:01.891Z,0.000000
2023-01-26T06:03:00.583Z,0.000000
2023-01-26T06:04:03.481Z,0.000000
2023-01-26T06:05:04.776Z,0.000000
2023-01-26T06:06:01.813Z,0.000000
2023-01-26T06:07:00.578Z,0.000000
2023-01-26T06:08:01.620Z,0.000000
2023-01-26T06:09:00.614Z,0.000000
2023-01-26T06:10:05.147Z,0.000000
2023-01-26T06:11:00.637Z,0.000000
2023-01-26T06:12:01.898Z,0.000000
2023-01-26T06:13:00.630Z,0.000000
2023-01-26T06:14:01.165Z,0.000000
2023-01-26T06:15:04.028Z,0.000000
2023-01-26T06:16:01.902Z,0.000000
2023-01-26T06:17:00.707Z,0.000000
2023-01-26T06:18:01.690Z,0.000000
2023-01-26T06:19:00.669Z,0.000000
2023-01-26T06:20:06.272Z,0.000000
2023-01-26T06:21:00.698Z,0.000000
2023-01-26T06:22:03.458Z,0.000000
2023-01-26T06:23:00.705Z,0.000000
2023-01-26T06:24:02.040Z,0.000000
2023-01-26T06:25:05.023Z,0.000000
2023-01-26T06:26:01.715Z,0.000000
2023-01-26T06:27:00.746Z,0.000000
2023-01-26T06:28:01.657Z,0.000000
2023-01-26T06:29:00.772Z,0.000000
2023-01-26T06:30:05.320Z,0.000000
2023-01-26T06:31:00.916Z,0.000000
2023-01-26T06:32:01.758Z,0.000000
2023-01-26T06:33:00.799Z,0.000000
2023-01-26T06:34:00.886Z,0.000000
2023-01-26T06:35:05.032Z,0.000000
2023-01-26T06:36:00.879Z,0.000000
2023-01-26T06:37:00.797Z,0.000000
2023-01-26T06:38:00.920Z,0.000000
2023-01-26T06:39:01.062Z,0.000000
2023-01-26T06:40:05.337Z,0.000000
2023-01-26T06:41:00.839Z,0.000000
2023-01-26T06:42:00.914Z,0.000000
2023-01-26T06:43:00.836Z,0.000000
2023-01-26T06:44:00.938Z,0.000000
2023-01-26T06:45:05.171Z,0.000000
2023-01-26T06:46:01.039Z,0.000000
2023-01-26T06:47:00.852Z,0.000000
2023-01-26T06:48:00.957Z,0.000000
2023-01-26T06:49:00.870Z,0.000000
2023-01-26T06:50:05.594Z,0.000000
2023-01-26T06:51:00.909Z,0.000000
2023-01-26T06:52:01.032Z,0.000000
2023-01-26T06:53:00.985Z,0.000000
2023-01-26T06:54:01.026Z,0.000000
2023-01-26T06:55:05.316Z,0.000000
2023-01-26T06:56:01.006Z,0.000000
2023-01-26T06:57:00.956Z,0.000000
2023-01-26T06:58:01.147Z,2.000000
2023-01-26T06:59:01.026Z,2.000000
2023-01-26T07:00:06.125Z,4.100000
2023-01-26T07:01:01.007Z,4.100000
2023-01-26T07:02:01.131Z,4.100000
2023-01-26T07:03:00.990Z,8.100000
2023-01-26T07:04:01.114Z,8.100000
2023-01-26T07:05:04.378Z,16.300000
2023-01-26T07:06:01.128Z,16.300000
2023-01-26T07:07:01.016Z,16.300000
2023-01-26T07:08:01.104Z,20.300000
2023-01-26T07:09:01.056Z,20.300000
2023-01-26T07:10:05.805Z,18.300000
2023-01-26T07:11:01.044Z,18.300000
2023-01-26T07:12:01.138Z,18.300000
2023-01-26T07:13:01.049Z,26.400000
2023-01-26T07:14:01.135Z,26.400000
2023-01-26T07:15:06.116Z,26.400000
2023-01-26T07:16:01.864Z,30.500000
2023-01-26T07:17:01.087Z,30.500000
2023-01-26T07:18:01.684Z,30.500000
2023-01-26T07:19:01.114Z,30.500000
2023-01-26T07:20:06.100Z,50.900000
2023-01-26T07:21:01.112Z,50.900000
2023-01-26T07:22:01.860Z,50.900000
2023-01-26T07:23:01.138Z,65.100000
2023-01-26T07:24:01.743Z,65.100000
2023-01-26T07:25:06.128Z,69.200000
2023-01-26T07:26:01.657Z,69.200000
2023-01-26T07:27:01.637Z,69.200000
2023-01-26T07:28:01.618Z,87.500000
2023-01-26T07:29:01.292Z,87.500000
2023-01-26T07:30:06.402Z,91.500000
2023-01-26T07:31:01.676Z,91.500000
2023-01-26T07:32:01.681Z,91.500000
2023-01-26T07:33:01.667Z,91.500000
2023-01-26T07:34:02.615Z,91.500000
2023-01-26T07:35:04.502Z,107.800000
2023-01-26T07:36:00.300Z,107.800000
2023-01-26T07:37:00.247Z,107.800000
2023-01-26T07:38:00.316Z,124.100000
2023-01-26T07:39:00.257Z,124.100000
2023-01-26T07:40:04.710Z,124.100000
2023-01-26T07:41:00.287Z,144.400000
2023-01-26T07:42:00.352Z,144.400000
2023-01-26T07:43:00.288Z,160.700000
2023-01-26T07:44:00.419Z,160.700000
2023-01-26T07:45:04.591Z,160.700000
2023-01-26T07:46:00.411Z,185.100000
2023-01-26T07:47:00.319Z,185.100000
2023-01-26T07:48:00.427Z,185.100000
2023-01-26T07:49:00.322Z,221.700000
2023-01-26T07:50:04.739Z,221.700000
2023-01-26T07:51:00.366Z,274.600000
2023-01-26T07:52:00.439Z,274.600000
2023-01-26T07:53:00.372Z,274.600000
2023-01-26T07:54:00.451Z,299.000000
2023-01-26T07:55:04.579Z,299.000000
2023-01-26T07:56:00.442Z,380.400000
2023-01-26T07:57:00.396Z,380.400000
2023-01-26T07:58:00.482Z,380.400000
2023-01-26T07:59:03.513Z,408.800000
2023-01-26T08:00:07.504Z,408.800000
2023-01-26T08:01:00.499Z,530.900000
2023-01-26T08:02:00.572Z,530.900000
2023-01-26T08:03:00.516Z,530.900000
2023-01-26T08:04:00.540Z,539.000000
2023-01-26T08:05:03.926Z,539.000000
2023-01-26T08:06:00.647Z,488.200000
2023-01-26T08:07:00.464Z,488.200000
2023-01-26T08:08:00.578Z,488.200000
2023-01-26T08:09:00.496Z,488.200000
2023-01-26T08:10:07.004Z,488.200000
2023-01-26T08:11:00.500Z,488.200000
2023-01-26T08:12:00.591Z,518.700000
2023-01-26T08:13:00.503Z,518.700000
2023-01-26T08:14:00.593Z,610.200000
2023-01-26T08:15:04.994Z,610.200000
2023-01-26T08:16:00.629Z,610.200000
2023-01-26T08:17:00.565Z,713.900000
2023-01-26T08:18:00.625Z,713.900000
2023-01-26T08:19:00.532Z,736.300000
2023-01-26T08:20:04.974Z,736.300000
2023-01-26T08:21:00.578Z,736.300000
2023-01-26T08:22:00.757Z,703.800000
2023-01-26T08:23:00.632Z,703.800000
2023-01-26T08:24:00.693Z,738.300000
2023-01-26T08:25:04.934Z,738.300000
2023-01-26T08:26:00.708Z,738.300000
2023-01-26T08:27:00.644Z,750.500000
2023-01-26T08:28:00.717Z,750.500000
2023-01-26T08:29:00.646Z,760.700000
2023-01-26T08:30:05.176Z,760.700000
2023-01-26T08:31:00.727Z,760.700000
2023-01-26T08:32:00.862Z,766.800000
2023-01-26T08:33:00.653Z,766.800000
2023-01-26T08:34:00.748Z,766.800000
2023-01-26T08:35:04.967Z,803.400000
2023-01-26T08:36:00.749Z,803.400000
2023-01-26T08:37:00.659Z,823.800000
2023-01-26T08:38:00.777Z,823.800000
2023-01-26T08:39:00.683Z,750.500000
2023-01-26T08:40:05.291Z,750.500000
2023-01-26T08:41:00.693Z,789.200000
2023-01-26T08:42:00.809Z,789.200000
2023-01-26T08:43:00.700Z,789.200000
2023-01-26T08:44:00.785Z,787.200000
2023-01-26T08:45:04.067Z,787.200000
2023-01-26T08:46:00.934Z,787.200000
2023-01-26T08:47:00.737Z,709.900000
2023-01-26T08:48:00.798Z,709.900000
2023-01-26T08:49:00.749Z,681.400000
2023-01-26T08:50:06.152Z,681.400000
2023-01-26T08:51:00.782Z,693.600000
2023-01-26T08:52:00.862Z,693.600000
2023-01-26T08:53:00.773Z,693.600000
2023-01-26T08:54:00.876Z,817.700000
2023-01-26T08:55:04.092Z,817.700000
2023-01-26T08:56:00.879Z,817.700000
2023-01-26T08:57:00.884Z,797.300000
2023-01-26T08:58:00.920Z,797.300000
2023-01-26T08:59:00.804Z,797.300000
2023-01-26T09:00:05.442Z,752.600000
2023-01-26T09:01:00.919Z,752.600000
2023-01-26T09:02:01.118Z,732.200000
2023-01-26T09:03:01.031Z,732.200000
2023-01-26T09:04:01.686Z,750.500000
2023-01-26T09:05:06.164Z,750.500000
2023-01-26T09:06:01.673Z,750.500000
2023-01-26T09:07:00.888Z,720.000000
2023-01-26T09:08:01.698Z,720.000000
2023-01-26T09:09:00.904Z,726.100000
2023-01-26T09:10:04.457Z,726.100000
2023-01-26T09:11:00.911Z,726.100000
2023-01-26T09:12:01.008Z,657.000000
2023-01-26T09:13:00.955Z,657.000000
2023-01-26T09:14:01.095Z,669.200000
2023-01-26T09:15:05.317Z,669.200000
2023-01-26T09:16:01.747Z,669.200000
2023-01-26T09:17:00.955Z,718.000000
2023-01-26T09:18:01.615Z,718.000000
2023-01-26T09:19:00.948Z,750.500000
2023-01-26T09:20:04.849Z,750.500000
2023-01-26T09:21:01.022Z,750.500000
2023-01-26T09:22:01.082Z,703.800000
2023-01-26T09:23:00.992Z,703.800000
2023-01-26T09:24:01.156Z,659.000000
2023-01-26T09:25:05.352Z,659.000000
2023-01-26T09:26:01.104Z,659.000000
2023-01-26T09:27:01.066Z,602.100000
2023-01-26T09:28:02.086Z,602.100000
2023-01-26T09:29:01.044Z,602.100000
2023-01-26T09:30:07.156Z,563.400000
2023-01-26T09:31:01.198Z,563.400000
2023-01-26T09:32:01.240Z,532.900000
2023-01-26T09:33:01.160Z,532.900000
2023-01-26T09:34:01.165Z,532.900000
2023-01-26T09:35:05.381Z,565.500000
2023-01-26T09:36:01.643Z,565.500000
2023-01-26T09:37:01.097Z,567.500000
2023-01-26T09:38:01.190Z,567.500000
2023-01-26T09:39:01.112Z,567.500000
2023-01-26T09:40:06.088Z,539.000000
2023-01-26T09:41:01.362Z,539.000000
2023-01-26T09:42:01.624Z,496.300000
2023-01-26T09:43:01.159Z,496.300000
2023-01-26T09:44:01.559Z,496.300000
2023-01-26T09:45:04.872Z,504.400000
2023-01-26T09:46:01.700Z,504.400000
2023-01-26T09:47:01.615Z,504.400000
2023-01-26T09:48:01.676Z,504.400000
2023-01-26T09:49:01.625Z,504.400000
2023-01-26T09:50:06.221Z,530.900000
2023-01-26T09:51:01.844Z,530.900000
2023-01-26T09:52:00.782Z,530.900000
2023-01-26T09:53:00.194Z,569.500000
2023-01-26T09:54:00.288Z,569.500000
2023-01-26T09:55:04.567Z,699.700000
2023-01-26T09:56:00.320Z,699.700000
2023-01-26T09:57:00.264Z,699.700000
2023-01-26T09:58:00.298Z,777.000000
2023-01-26T09:59:00.243Z,777.000000
2023-01-26T10:00:06.329Z,833.900000
2023-01-26T10:01:00.259Z,833.900000
2023-01-26T10:02:00.348Z,833.900000
2023-01-26T10:03:00.477Z,848.200000
2023-01-26T10:04:00.346Z,848.200000
2023-01-26T10:05:04.590Z,1043.400000
2023-01-26T10:06:00.384Z,1043.400000
2023-01-26T10:07:00.303Z,1043.400000
2023-01-26T10:08:00.368Z,1293.600000
2023-01-26T10:09:00.314Z,1293.600000
2023-01-26T10:10:04.797Z,1366.800000
2023-01-26T10:11:00.336Z,1366.800000
2023-01-26T10:12:00.406Z,1366.800000
2023-01-26T10:13:00.364Z,1322.100000
2023-01-26T10:14:00.430Z,1322.100000
2023-01-26T10:15:03.767Z,1336.300000
2023-01-26T10:16:00.481Z,1336.300000
2023-01-26T10:17:00.370Z,1336.300000
2023-01-26T10:18:00.455Z,1100.400000
2023-01-26T10:19:00.445Z,1100.400000
2023-01-26T10:20:05.046Z,1041.400000
2023-01-26T10:21:00.406Z,1041.400000
2023-01-26T10:22:00.481Z,1035.300000
2023-01-26T10:23:00.401Z,1035.300000
2023-01-26T10:24:00.599Z,1035.300000
2023-01-26T10:25:03.715Z,1415.700000
2023-01-26T10:26:00.560Z,1415.700000
2023-01-26T10:27:00.437Z,1415.700000
2023-01-26T10:28:00.505Z,1427.900000
2023-01-26T10:29:00.485Z,1427.900000
2023-01-26T10:30:05.021Z,1391.300000
2023-01-26T10:31:00.529Z,1391.300000
2023-01-26T10:32:00.549Z,1334.300000
2023-01-26T10:33:00.485Z,1334.300000
2023-01-26T10:34:00.568Z,1334.300000
2023-01-26T10:35:03.874Z,1364.800000
2023-01-26T10:36:00.604Z,1364.800000
2023-01-26T10:37:00.501Z,1364.800000
2023-01-26T10:38:00.606Z,1291.600000
2023-01-26T10:39:00.532Z,1291.600000
2023-01-26T10:40:05.024Z,1271.300000
2023-01-26T10:41:00.538Z,1271.300000
2023-01-26T10:42:00.640Z,1271.300000
2023-01-26T10:43:00.546Z,1218.400000
2023-01-26T10:44:00.653Z,1218.400000
2023-01-26T10:45:04.830Z,1218.400000
2023-01-26T10:46:00.628Z,1155.300000
2023-01-26T10:47:00.574Z,1155.300000
2023-01-26T10:48:00.674Z,1198.000000
2023-01-26T10:49:00.621Z,1198.000000
2023-01-26T10:50:05.104Z,1198.000000
2023-01-26T10:51:02.374Z,1220.400000
2023-01-26T10:52:00.687Z,1220.400000
2023-01-26T10:53:00.608Z,1206.200000
2023-01-26T10:54:00.707Z,1206.200000
2023-01-26T10:55:06.015Z,1220.400000
2023-01-26T10:56:00.719Z,1220.400000
2023-01-26T10:57:00.645Z,1220.400000
2023-01-26T10:58:00.720Z,1222.400000
2023-01-26T10:59:00.643Z,1222.400000
2023-01-26T11:00:05.239Z,1222.400000
2023-01-26T11:01:00.670Z,1316.000000
2023-01-26T11:02:00.744Z,1316.000000
2023-01-26T11:03:00.722Z,1383.100000
2023-01-26T11:04:00.730Z,1383.100000
2023-01-26T11:05:05.691Z,1383.100000
2023-01-26T11:06:00.792Z,1419.700000
2023-01-26T11:07:00.738Z,1419.700000
2023-01-26T11:08:00.774Z,1419.700000
2023-01-26T11:09:00.727Z,1503.100000
2023-01-26T11:10:05.134Z,1503.100000
2023-01-26T11:11:00.745Z,1527.500000
2023-01-26T11:12:00.842Z,1527.500000
2023-01-26T11:13:00.755Z,1527.500000
2023-01-26T11:14:00.845Z,1598.700000
2023-01-26T11:15:06.105Z,1598.700000
2023-01-26T11:16:00.928Z,1525.500000
2023-01-26T11:17:00.777Z,1525.500000
2023-01-26T11:18:00.884Z,1523.500000
2023-01-26T11:19:00.812Z,1523.500000
2023-01-26T11:20:05.285Z,1523.500000
2023-01-26T11:21:00.801Z,1721.000000
2023-01-26T11:22:00.893Z,1721.000000
2023-01-26T11:23:00.822Z,1721.000000
2023-01-26T11:24:00.982Z,1703.000000
2023-01-26T11:25:05.166Z,1703.000000
2023-01-26T11:26:00.913Z,1440.100000
2023-01-26T11:27:00.858Z,1440.100000